KBIE

Beatrice Municipal Airport

Beatrice, Nebraska, USA
METAR KBIE 181255Z AUTO 18007KT 10SM SCT065 BKN075 BKN100 27/21 A2995 RMK AO2 T02650213
Observed Flight Rules
Jun-18 @ 12:55 UTC (24 minutes ago) Visual Flight Rules
Wind Visibility Clouds
180° at 7 knots 10 miles
  • Scattered at 6,500' AGL
  • Broken at 7,500' AGL
  • Broken at 10,000' AGL
Temperatures Readings
Current 27°C / 81°F
Dewpoint 21°C / 70°F
Humidity 70%
Altimeter 29.95" Hg
Pressure 1014 hPa
Elevation 403
METAR KBIE 181255Z AUTO 18007KT 10SM SCT065 BKN075 BKN100 27/21 A2995 RMK AO2 T02650213
Observed Flight Rules
Jun-18 @ 12:55 UTC
(24 minutes ago)
VFR
Wind Visibility
180° at 7 knots 10 miles
Clouds
  • Scattered at 6,500' AGL
  • Broken at 7,500' AGL
  • Broken at 10,000' AGL
Temperature Dewpoint
27°C / 81°F 21°C / 70°F
Humidity Altimeter Pressure
70% 29.95" Hg 1014 hPa